Time;durP1;ratioP1;P1;durP2;ratioP2;P2;SDS_P1;SDS_P2;PMS_P1;PMS_P2;Temp;Humidity;BMP_temperature;BMP_pressure;BME280_temperature;BME280_humidity;BME280_pressure;Samples;Min_cycle;Max_cycle;Signal;HPM_P1;HPM_P2
2021/07/29 00:00:51;;;;;;;19.60;3.42;;;;;;;;;;5016803;28;20090;-68
2021/07/29 00:03:18;;;;;;;19.92;3.45;;;;;;;;;;5013636;28;20481;-68
2021/07/29 00:05:46;;;;;;;17.63;3.45;;;;;;;;;;5027172;28;20147;-68
2021/07/29 00:08:13;;;;;;;17.42;3.63;;;;;;;;;;5024927;28;20048;-68
2021/07/29 00:10:39;;;;;;;15.65;3.10;;;;;;;;;;5022249;28;20050;-68
2021/07/29 00:13:05;;;;;;;15.50;3.38;;;;;;;;;;5024841;28;20466;-68
2021/07/29 00:15:32;;;;;;;20.27;3.90;;;;;;;;;;5024963;28;20061;-68
2021/07/29 00:20:25;;;;;;;19.08;3.25;;;;;;;;;;5024567;28;20105;-69
2021/07/29 00:22:53;;;;;;;18.98;3.90;;;;;;;;;;5015608;28;20049;-68
2021/07/29 00:25:20;;;;;;;16.73;3.97;;;;;;;;;;5021288;28;20042;-68
2021/07/29 00:27:46;;;;;;;22.17;3.97;;;;;;;;;;5023411;28;20366;-68
2021/07/29 00:30:13;;;;;;;19.40;4.63;;;;;;;;;;5019960;28;20346;-68
2021/07/29 00:32:40;;;;;;;46.63;8.00;;;;;;;;;;5022039;28;20063;-67
2021/07/29 00:35:07;;;;;;;14.57;3.28;;;;;;;;;;5021926;28;20044;-67
2021/07/29 00:37:34;;;;;;;5.78;1.95;;;;;;;;;;5025104;28;20096;-68
2021/07/29 00:40:01;;;;;;;4.95;1.95;;;;;;;;;;5023664;28;20128;-68
2021/07/29 00:42:27;;;;;;;9.43;1.67;;;;;;;;;;5023405;28;20065;-68
2021/07/29 00:44:54;;;;;;;5.30;1.55;;;;;;;;;;5021672;28;20041;-68
2021/07/29 00:47:20;;;;;;;6.40;1.58;;;;;;;;;;5021517;28;20043;-67
2021/07/29 00:49:47;;;;;;;5.57;1.40;;;;;;;;;;5019849;28;20543;-68
2021/07/29 00:52:14;;;;;;;6.18;1.58;;;;;;;;;;5020531;28;20045;-68
2021/07/29 00:54:41;;;;;;;14.20;2.55;;;;;;;;;;5020981;28;20553;-68
2021/07/29 00:57:08;;;;;;;5.13;1.73;;;;;;;;;;5024217;28;20045;-68
2021/07/29 00:59:35;;;;;;;6.03;1.73;;;;;;;;;;5020843;28;20141;-68
2021/07/29 01:02:01;;;;;;;7.55;1.73;;;;;;;;;;5014594;28;20053;-68
2021/07/29 01:04:28;;;;;;;5.00;1.65;;;;;;;;;;5013091;28;20053;-68
2021/07/29 01:06:55;;;;;;;5.57;1.50;;;;;;;;;;5020561;28;20137;-68
2021/07/29 01:09:21;;;;;;;6.03;2.33;;;;;;;;;;5012001;28;20042;-68
2021/07/29 01:11:47;;;;;;;4.93;1.90;;;;;;;;;;5021625;28;20053;-68
2021/07/29 01:14:14;;;;;;;11.13;1.75;;;;;;;;;;5023006;28;20475;-68
2021/07/29 01:16:41;;;;;;;9.25;2.00;;;;;;;;;;5021169;28;20501;-68
2021/07/29 01:19:08;;;;;;;5.85;1.95;;;;;;;;;;5021066;28;20069;-68
2021/07/29 01:21:34;;;;;;;5.95;2.80;;;;;;;;;;5024159;28;20143;-68
2021/07/29 01:24:00;;;;;;;6.15;1.95;;;;;;;;;;5023163;28;20585;-68
2021/07/29 01:26:27;;;;;;;6.82;2.10;;;;;;;;;;5022303;28;20041;-68
2021/07/29 01:28:55;;;;;;;5.57;1.80;;;;;;;;;;5019748;28;20515;-68
2021/07/29 01:31:21;;;;;;;5.90;1.60;;;;;;;;;;5022657;28;20049;-68
2021/07/29 01:33:48;;;;;;;11.07;2.30;;;;;;;;;;5024707;28;20037;-68
2021/07/29 01:36:14;;;;;;;9.18;2.28;;;;;;;;;;5023969;28;20076;-68
2021/07/29 01:38:40;;;;;;;7.38;1.90;;;;;;;;;;5021177;28;20107;-68
2021/07/29 01:41:07;;;;;;;12.70;2.30;;;;;;;;;;5022616;28;20485;-68
2021/07/29 01:43:33;;;;;;;8.02;2.22;;;;;;;;;;5018372;28;20116;-68
2021/07/29 01:46:00;;;;;;;10.68;3.50;;;;;;;;;;5023705;28;20049;-68
2021/07/29 01:48:27;;;;;;;8.93;1.98;;;;;;;;;;5022901;28;20049;-68
2021/07/29 01:50:53;;;;;;;7.40;1.88;;;;;;;;;;5020926;28;20084;-68
2021/07/29 01:53:20;;;;;;;11.18;2.05;;;;;;;;;;5023685;28;20053;-68
2021/07/29 01:55:46;;;;;;;7.60;2.00;;;;;;;;;;5019583;28;20049;-68
2021/07/29 01:58:13;;;;;;;8.93;1.75;;;;;;;;;;5023441;28;20060;-68
2021/07/29 02:00:40;;;;;;;7.47;1.90;;;;;;;;;;5017598;28;20061;-68
2021/07/29 02:03:06;;;;;;;9.27;1.65;;;;;;;;;;5016725;28;20042;-68
2021/07/29 02:05:33;;;;;;;8.25;1.67;;;;;;;;;;5014768;28;20056;-68
2021/07/29 02:07:59;;;;;;;10.55;1.50;;;;;;;;;;5024799;28;20140;-68
2021/07/29 02:10:26;;;;;;;10.60;2.13;;;;;;;;;;5019395;28;20370;-68
2021/07/29 02:12:53;;;;;;;9.57;2.13;;;;;;;;;;5015872;28;20151;-68
2021/07/29 02:15:19;;;;;;;9.63;1.70;;;;;;;;;;5012780;28;20049;-68
2021/07/29 02:17:46;;;;;;;13.95;2.30;;;;;;;;;;5015908;28;20060;-68
2021/07/29 02:20:13;;;;;;;10.07;2.22;;;;;;;;;;5026277;28;20100;-68
2021/07/29 02:22:39;;;;;;;11.40;2.03;;;;;;;;;;5024369;28;20093;-68
2021/07/29 02:25:05;;;;;;;9.23;1.80;;;;;;;;;;5022357;28;20053;-68
2021/07/29 02:27:32;;;;;;;10.27;2.42;;;;;;;;;;5020640;28;20064;-68
2021/07/29 02:29:59;;;;;;;15.50;2.40;;;;;;;;;;5025303;28;20038;-68
2021/07/29 02:32:25;;;;;;;7.32;1.63;;;;;;;;;;5023905;28;20136;-68
2021/07/29 02:34:52;;;;;;;9.75;1.95;;;;;;;;;;5025633;28;20108;-68
2021/07/29 02:37:19;;;;;;;6.93;1.58;;;;;;;;;;5026279;28;20064;-68
2021/07/29 02:39:45;;;;;;;10.65;1.73;;;;;;;;;;5024990;28;20501;-68
2021/07/29 02:42:12;;;;;;;8.35;1.88;;;;;;;;;;5025233;28;20061;-68
2021/07/29 02:44:38;;;;;;;8.27;2.03;;;;;;;;;;5022799;28;20127;-69
2021/07/29 02:47:04;;;;;;;5.97;1.30;;;;;;;;;;5025621;28;20045;-68
2021/07/29 02:49:34;;;;;;;5.95;1.35;;;;;;;;;;5024969;28;20076;-68
2021/07/29 02:52:04;;;;;;;7.45;1.48;;;;;;;;;;5026203;28;20175;-68
2021/07/29 02:54:30;;;;;;;5.28;1.55;;;;;;;;;;5028061;28;20048;-68
2021/07/29 02:56:56;;;;;;;5.28;1.40;;;;;;;;;;5028277;28;20115;-68
2021/07/29 02:59:22;;;;;;;4.20;1.60;;;;;;;;;;5024187;28;20611;-68
2021/07/29 03:01:48;;;;;;;4.72;1.30;;;;;;;;;;5023963;28;20126;-68
2021/07/29 03:04:14;;;;;;;5.05;1.42;;;;;;;;;;5025770;28;20082;-68
2021/07/29 03:06:41;;;;;;;6.28;1.52;;;;;;;;;;5021717;28;20080;-68
2021/07/29 03:09:10;;;;;;;6.68;1.63;;;;;;;;;;5024370;28;20470;-68
2021/07/29 03:11:36;;;;;;;8.43;1.65;;;;;;;;;;5027916;28;20041;-68
2021/07/29 03:14:02;;;;;;;9.38;1.70;;;;;;;;;;5019283;28;20052;-68
2021/07/29 03:16:28;;;;;;;6.72;1.60;;;;;;;;;;5026009;28;20057;-68
2021/07/29 03:18:55;;;;;;;9.20;2.45;;;;;;;;;;5023377;28;20477;-67
2021/07/29 03:21:22;;;;;;;8.45;1.85;;;;;;;;;;5025443;28;20121;-68
2021/07/29 03:23:49;;;;;;;5.25;1.42;;;;;;;;;;5024403;28;20085;-68
2021/07/29 03:26:15;;;;;;;10.10;2.60;;;;;;;;;;5025966;28;20042;-68
2021/07/29 03:28:41;;;;;;;6.60;1.70;;;;;;;;;;5025136;28;20045;-68
2021/07/29 03:31:07;;;;;;;9.57;2.00;;;;;;;;;;5021715;28;20091;-68
2021/07/29 03:33:33;;;;;;;7.85;1.75;;;;;;;;;;5024602;28;20046;-68
2021/07/29 03:36:00;;;;;;;6.18;1.60;;;;;;;;;;5025097;28;20055;-68
2021/07/29 03:38:26;;;;;;;9.05;2.08;;;;;;;;;;5022060;28;20149;-68
2021/07/29 03:40:52;;;;;;;5.75;1.40;;;;;;;;;;5022540;28;20049;-68
2021/07/29 03:43:19;;;;;;;4.15;1.80;;;;;;;;;;5021323;28;20042;-68
2021/07/29 03:45:45;;;;;;;9.18;1.88;;;;;;;;;;5024208;28;20440;-68
2021/07/29 03:48:12;;;;;;;10.10;1.70;;;;;;;;;;5023342;28;20552;-68
2021/07/29 03:50:39;;;;;;;11.23;2.55;;;;;;;;;;5024795;28;20037;-68
2021/07/29 03:53:05;;;;;;;9.68;2.42;;;;;;;;;;5024611;28;20042;-67
2021/07/29 03:55:32;;;;;;;9.77;1.75;;;;;;;;;;5025165;28;20095;-68
2021/07/29 03:57:59;;;;;;;17.55;3.22;;;;;;;;;;5024734;28;20056;-68
2021/07/29 04:00:25;;;;;;;14.02;3.17;;;;;;;;;;5025172;28;20041;-68
2021/07/29 04:02:52;;;;;;;8.82;2.40;;;;;;;;;;5019930;28;20045;-68
2021/07/29 04:05:18;;;;;;;13.38;2.60;;;;;;;;;;5014093;28;20077;-68
2021/07/29 04:07:44;;;;;;;12.07;2.58;;;;;;;;;;5011469;28;20080;-68
2021/07/29 04:10:10;;;;;;;15.07;3.83;;;;;;;;;;5023948;28;20048;-68
2021/07/29 04:12:37;;;;;;;9.43;2.63;;;;;;;;;;5023812;28;20052;-68
2021/07/29 04:15:04;;;;;;;13.38;2.58;;;;;;;;;;5025002;28;20042;-68
2021/07/29 04:17:30;;;;;;;14.05;2.72;;;;;;;;;;5023619;28;20064;-68
2021/07/29 04:19:59;;;;;;;13.35;3.15;;;;;;;;;;5026377;28;20065;-68
2021/07/29 04:22:25;;;;;;;14.93;3.70;;;;;;;;;;5026839;28;20537;-68
2021/07/29 04:24:54;;;;;;;13.45;2.85;;;;;;;;;;5025121;28;20516;-68
2021/07/29 04:27:20;;;;;;;16.92;2.95;;;;;;;;;;5024915;28;20338;-68
2021/07/29 04:29:51;;;;;;;8.57;2.95;;;;;;;;;;5021612;28;20480;-67
2021/07/29 04:32:20;;;;;;;14.73;2.85;;;;;;;;;;5020842;28;20425;-68
2021/07/29 04:34:48;;;;;;;12.55;2.75;;;;;;;;;;5024395;28;20122;-68
2021/07/29 04:37:15;;;;;;;11.25;2.22;;;;;;;;;;5019535;28;20115;-68
2021/07/29 04:39:42;;;;;;;15.55;3.03;;;;;;;;;;5023479;28;20077;-68
2021/07/29 04:42:10;;;;;;;15.82;3.10;;;;;;;;;;5023528;28;20128;-67
2021/07/29 04:44:37;;;;;;;16.02;3.10;;;;;;;;;;5024246;28;20049;-67
2021/07/29 04:47:04;;;;;;;14.10;2.58;;;;;;;;;;5021589;28;20424;-68
2021/07/29 04:49:34;;;;;;;8.00;2.45;;;;;;;;;;5019048;28;20069;-68
2021/07/29 04:52:00;;;;;;;15.25;2.85;;;;;;;;;;5018330;28;20135;-67
2021/07/29 04:54:27;;;;;;;8.20;2.75;;;;;;;;;;5024629;28;20049;-67
2021/07/29 04:56:53;;;;;;;12.75;2.33;;;;;;;;;;5018982;28;20057;-67
2021/07/29 04:59:21;;;;;;;9.13;2.50;;;;;;;;;;5022602;28;20096;-67
2021/07/29 05:01:49;;;;;;;10.25;3.50;;;;;;;;;;5023546;28;20076;-68
2021/07/29 05:04:16;;;;;;;11.43;1.63;;;;;;;;;;5022264;28;20045;-68
2021/07/29 05:06:42;;;;;;;9.07;1.98;;;;;;;;;;5017920;28;20085;-68
2021/07/29 05:09:09;;;;;;;12.23;2.33;;;;;;;;;;5017599;28;20049;-68
2021/07/29 05:11:38;;;;;;;11.68;1.83;;;;;;;;;;5019771;28;20260;-68
2021/07/29 05:14:05;;;;;;;17.27;2.72;;;;;;;;;;5017765;28;20142;-68
2021/07/29 05:16:45;;;;;;;11.13;2.53;;;;;;;;;;5018167;28;20058;-68
2021/07/29 05:19:11;;;;;;;5.28;1.80;;;;;;;;;;5017764;28;20061;-68
2021/07/29 05:21:39;;;;;;;10.93;2.28;;;;;;;;;;5020528;28;20045;-68
2021/07/29 05:24:09;;;;;;;5.03;1.95;;;;;;;;;;5024111;28;20060;-68
2021/07/29 05:26:35;;;;;;;12.13;2.50;;;;;;;;;;5020156;28;20546;-68
2021/07/29 05:29:01;;;;;;;11.02;1.98;;;;;;;;;;5025209;28;20049;-68
2021/07/29 05:31:28;;;;;;;11.73;2.20;;;;;;;;;;5021375;28;20193;-68
2021/07/29 05:33:55;;;;;;;9.73;1.98;;;;;;;;;;5020305;28;20530;-68
2021/07/29 05:36:21;;;;;;;6.20;1.60;;;;;;;;;;5021176;28;20174;-68
2021/07/29 05:38:48;;;;;;;13.27;2.42;;;;;;;;;;5020788;28;20049;-67
2021/07/29 05:41:14;;;;;;;15.20;2.70;;;;;;;;;;5022883;28;20052;-68
2021/07/29 05:43:40;;;;;;;8.60;1.75;;;;;;;;;;5023754;28;20500;-69
2021/07/29 05:46:11;;;;;;;12.13;3.05;;;;;;;;;;5022481;28;20061;-68
2021/07/29 05:48:37;;;;;;;13.30;1.88;;;;;;;;;;5020703;28;20042;-68
2021/07/29 05:51:04;;;;;;;8.52;2.20;;;;;;;;;;5013577;28;20072;-68
2021/07/29 05:53:30;;;;;;;9.75;2.28;;;;;;;;;;5022922;28;20311;-67
2021/07/29 05:55:57;;;;;;;9.20;1.83;;;;;;;;;;5015637;28;20057;-67
2021/07/29 05:58:23;;;;;;;8.20;1.88;;;;;;;;;;5015275;28;20120;-67
2021/07/29 06:00:50;;;;;;;10.95;1.83;;;;;;;;;;5018982;28;20716;-67
2021/07/29 06:03:16;;;;;;;13.95;1.90;;;;;;;;;;5022887;28;20069;-67
2021/07/29 06:05:42;;;;;;;10.52;2.33;;;;;;;;;;5020831;28;20067;-68
2021/07/29 06:08:08;;;;;;;11.35;1.95;;;;;;;;;;5033977;28;20415;-67
2021/07/29 06:10:35;;;;;;;10.60;2.50;;;;;;;;;;5023489;28;20053;-68
2021/07/29 06:13:01;;;;;;;9.77;1.90;;;;;;;;;;5021314;28;20049;-68
2021/07/29 06:15:27;;;;;;;8.13;1.85;;;;;;;;;;5020151;28;20141;-68
2021/07/29 06:17:57;;;;;;;10.55;2.53;;;;;;;;;;5026796;28;20128;-69
2021/07/29 06:20:23;;;;;;;8.70;1.77;;;;;;;;;;5018956;28;20056;-69
2021/07/29 06:22:50;;;;;;;8.02;2.25;;;;;;;;;;5020478;28;20164;-69
2021/07/29 06:25:18;;;;;;;7.85;2.45;;;;;;;;;;5020511;28;20053;-69
2021/07/29 06:27:47;;;;;;;11.05;2.42;;;;;;;;;;5029793;28;20464;-72
2021/07/29 06:30:13;;;;;;;7.13;1.83;;;;;;;;;;5029243;28;20098;-69
2021/07/29 06:32:39;;;;;;;9.02;1.95;;;;;;;;;;5028646;28;20041;-69
2021/07/29 06:35:07;;;;;;;10.20;2.00;;;;;;;;;;5021922;28;20092;-69
2021/07/29 06:37:33;;;;;;;12.25;2.13;;;;;;;;;;5023970;28;20505;-69
2021/07/29 06:40:00;;;;;;;12.38;2.40;;;;;;;;;;5022268;28;20144;-69
2021/07/29 06:42:26;;;;;;;12.20;2.05;;;;;;;;;;5021781;28;20513;-69
2021/07/29 06:44:52;;;;;;;9.90;2.20;;;;;;;;;;5020558;28;20034;-69
2021/07/29 06:47:20;;;;;;;9.88;2.40;;;;;;;;;;5026549;28;20045;-70
2021/07/29 06:49:47;;;;;;;8.15;2.03;;;;;;;;;;5019683;28;20069;-70
2021/07/29 06:52:14;;;;;;;10.38;1.85;;;;;;;;;;5025019;28;20050;-69
2021/07/29 06:54:40;;;;;;;9.48;1.92;;;;;;;;;;5025076;28;20122;-70
2021/07/29 06:57:07;;;;;;;11.95;2.42;;;;;;;;;;5021983;28;20044;-70
2021/07/29 06:59:33;;;;;;;13.60;2.20;;;;;;;;;;5018376;28;20057;-70
2021/07/29 07:02:00;;;;;;;11.30;2.95;;;;;;;;;;5030150;28;20041;-70
2021/07/29 07:04:26;;;;;;;7.30;1.88;;;;;;;;;;5020090;28;20093;-70
2021/07/29 07:06:52;;;;;;;13.02;2.47;;;;;;;;;;5025663;28;20077;-70
2021/07/29 07:09:18;;;;;;;10.98;1.88;;;;;;;;;;5028645;28;20414;-70
2021/07/29 07:11:45;;;;;;;11.30;2.22;;;;;;;;;;5023044;28;20169;-70
2021/07/29 07:14:11;;;;;;;13.60;2.13;;;;;;;;;;5026657;28;20116;-70
2021/07/29 07:16:38;;;;;;;7.22;1.92;;;;;;;;;;5026653;28;20053;-71
2021/07/29 07:19:05;;;;;;;10.35;2.58;;;;;;;;;;5028229;28;20030;-70
2021/07/29 07:21:32;;;;;;;8.70;2.20;;;;;;;;;;5020376;28;20431;-70
2021/07/29 07:23:58;;;;;;;10.80;2.25;;;;;;;;;;5020261;28;20034;-70
2021/07/29 07:26:25;;;;;;;8.52;1.98;;;;;;;;;;5021580;28;20504;-71
2021/07/29 07:28:52;;;;;;;14.30;2.92;;;;;;;;;;5027411;28;20477;-70
2021/07/29 07:31:20;;;;;;;15.63;2.85;;;;;;;;;;5020956;28;20065;-70
2021/07/29 07:33:46;;;;;;;10.20;2.08;;;;;;;;;;5017598;28;20046;-70
2021/07/29 07:36:17;;;;;;;14.77;2.63;;;;;;;;;;5017588;28;20361;-70
2021/07/29 07:38:43;;;;;;;7.55;2.13;;;;;;;;;;5025806;28;20096;-70
2021/07/29 07:41:10;;;;;;;9.48;2.35;;;;;;;;;;5017249;28;20071;-70
2021/07/29 07:43:36;;;;;;;8.75;2.30;;;;;;;;;;5021207;28;20045;-70
2021/07/29 07:46:03;;;;;;;14.95;2.67;;;;;;;;;;5028135;28;20047;-70
2021/07/29 07:48:30;;;;;;;12.48;2.88;;;;;;;;;;5018850;28;20433;-70
2021/07/29 07:50:57;;;;;;;11.68;2.55;;;;;;;;;;5021197;28;20042;-70
2021/07/29 07:53:26;;;;;;;9.93;2.33;;;;;;;;;;5023897;28;20213;-70
2021/07/29 07:55:52;;;;;;;13.82;3.20;;;;;;;;;;5019504;28;20048;-70
2021/07/29 07:58:19;;;;;;;14.00;2.75;;;;;;;;;;5022196;28;20069;-70
2021/07/29 08:00:45;;;;;;;9.40;2.90;;;;;;;;;;5017216;28;20112;-70
2021/07/29 08:03:12;;;;;;;16.65;2.50;;;;;;;;;;5024530;28;20065;-70
2021/07/29 08:05:38;;;;;;;13.57;3.15;;;;;;;;;;5028883;28;20072;-71
2021/07/29 08:08:08;;;;;;;9.75;3.00;;;;;;;;;;5022580;28;20085;-70
2021/07/29 08:10:36;;;;;;;9.15;2.80;;;;;;;;;;5023180;28;20389;-70
2021/07/29 08:13:03;;;;;;;8.93;2.42;;;;;;;;;;5020827;28;20057;-70
2021/07/29 08:15:29;;;;;;;18.92;2.95;;;;;;;;;;5022554;28;20129;-70
2021/07/29 08:17:56;;;;;;;12.35;2.78;;;;;;;;;;5029864;28;20072;-70
2021/07/29 08:20:24;;;;;;;8.88;2.85;;;;;;;;;;5023896;28;20088;-70
2021/07/29 08:22:52;;;;;;;15.10;3.15;;;;;;;;;;5021258;28;20058;-70
2021/07/29 08:25:20;;;;;;;16.20;3.95;;;;;;;;;;5016994;28;20159;-70
2021/07/29 08:27:46;;;;;;;13.38;2.70;;;;;;;;;;5019171;28;20112;-70
2021/07/29 08:30:13;;;;;;;9.63;2.50;;;;;;;;;;5019745;28;20441;-70
2021/07/29 08:32:39;;;;;;;14.65;2.90;;;;;;;;;;5022337;28;20061;-70
2021/07/29 08:35:05;;;;;;;11.82;2.75;;;;;;;;;;5016257;28;20084;-70
2021/07/29 08:37:32;;;;;;;9.77;2.22;;;;;;;;;;5021640;28;20049;-70
2021/07/29 08:39:58;;;;;;;12.88;2.92;;;;;;;;;;5023442;28;20041;-80
2021/07/29 08:42:26;;;;;;;14.68;3.00;;;;;;;;;;5023693;28;20419;-70
2021/07/29 08:44:52;;;;;;;11.75;3.10;;;;;;;;;;5023158;28;20057;-70
2021/07/29 08:47:23;;;;;;;15.15;3.28;;;;;;;;;;5021589;28;20110;-70
2021/07/29 08:49:53;;;;;;;15.35;3.15;;;;;;;;;;5020901;28;20052;-70
2021/07/29 08:52:19;;;;;;;8.52;2.45;;;;;;;;;;5024091;28;20135;-69
2021/07/29 08:54:47;;;;;;;12.43;2.58;;;;;;;;;;5019434;28;20208;-69
2021/07/29 08:57:14;;;;;;;11.98;1.63;;;;;;;;;;5024897;28;20071;-69
2021/07/29 08:59:40;;;;;;;7.70;1.48;;;;;;;;;;5022623;28;20128;-69
2021/07/29 09:02:22;;;;;;;4.63;1.17;;;;;;;;;;5025323;28;20049;-70
2021/07/29 09:05:06;;;;;;;8.60;1.42;;;;;;;;;;5021315;28;20375;-70
2021/07/29 09:07:33;;;;;;;6.25;1.23;;;;;;;;;;5020289;28;20133;-69
2021/07/29 09:09:59;;;;;;;9.45;2.33;;;;;;;;;;5022761;28;20045;-69
2021/07/29 09:12:26;;;;;;;10.60;2.28;;;;;;;;;;5024347;28;20124;-69
2021/07/29 09:14:53;;;;;;;5.55;1.35;;;;;;;;;;5025830;28;20045;-69
2021/07/29 09:17:20;;;;;;;7.35;1.70;;;;;;;;;;5027043;28;20049;-69
2021/07/29 09:19:48;;;;;;;6.97;1.50;;;;;;;;;;5024286;28;20132;-69
2021/07/29 09:22:15;;;;;;;8.50;1.90;;;;;;;;;;5020422;28;20500;-69
2021/07/29 09:24:56;;;;;;;9.57;1.85;;;;;;;;;;5023786;28;20049;-70
2021/07/29 09:27:23;;;;;;;9.35;1.73;;;;;;;;;;5022042;28;20140;-69
2021/07/29 09:29:49;;;;;;;7.30;1.75;;;;;;;;;;5024170;28;20053;-69
2021/07/29 09:32:17;;;;;;;9.35;1.90;;;;;;;;;;5020479;28;20049;-69
2021/07/29 09:34:47;;;;;;;6.78;1.55;;;;;;;;;;5020696;28;20042;-69
2021/07/29 09:37:13;;;;;;;7.20;1.50;;;;;;;;;;5023040;28;20065;-69
2021/07/29 09:39:40;;;;;;;10.27;1.70;;;;;;;;;;5024975;28;20114;-69
2021/07/29 09:42:14;;;;;;;8.68;1.60;;;;;;;;;;5024021;28;20045;-69
2021/07/29 09:44:42;;;;;;;9.98;2.17;;;;;;;;;;5015607;28;20122;-69
2021/07/29 09:47:08;;;;;;;7.70;1.60;;;;;;;;;;5020825;28;20092;-69
2021/07/29 09:49:36;;;;;;;9.73;1.90;;;;;;;;;;5021616;28;20053;-70
2021/07/29 09:52:04;;;;;;;6.70;1.60;;;;;;;;;;5020168;28;20053;-69
2021/07/29 09:54:30;;;;;;;6.25;1.55;;;;;;;;;;5016106;28;20045;-70
2021/07/29 09:56:56;;;;;;;8.40;2.08;;;;;;;;;;5023387;28;20045;-70
2021/07/29 09:59:22;;;;;;;10.60;1.63;;;;;;;;;;5025060;28;20053;-70
2021/07/29 10:01:50;;;;;;;9.73;2.10;;;;;;;;;;5022306;28;20048;-70
2021/07/29 10:04:17;;;;;;;7.50;2.00;;;;;;;;;;5020107;28;20077;-69
2021/07/29 10:06:44;;;;;;;9.75;2.15;;;;;;;;;;5026423;28;20155;-69
2021/07/29 10:09:12;;;;;;;12.38;1.98;;;;;;;;;;5019749;28;20120;-69
2021/07/29 10:11:41;;;;;;;9.48;2.15;;;;;;;;;;5025964;28;20143;-69
2021/07/29 10:14:10;;;;;;;7.97;1.77;;;;;;;;;;5025012;28;20073;-70
2021/07/29 10:16:43;;;;;;;5.35;1.70;;;;;;;;;;5020980;28;20050;-70
2021/07/29 10:19:10;;;;;;;9.10;1.85;;;;;;;;;;5022425;28;20123;-70
2021/07/29 10:21:38;;;;;;;8.43;2.03;;;;;;;;;;5018210;28;20446;-69
2021/07/29 10:24:05;;;;;;;6.40;1.73;;;;;;;;;;5022588;28;20053;-70
2021/07/29 10:26:34;;;;;;;9.13;1.95;;;;;;;;;;5020618;28;20057;-69
2021/07/29 10:29:19;;;;;;;10.35;1.95;;;;;;;;;;5019816;28;20058;-70
2021/07/29 10:31:50;;;;;;;9.63;2.00;;;;;;;;;;5019967;28;20053;-70
2021/07/29 10:34:37;;;;;;;5.72;1.98;;;;;;;;;;5017622;28;20046;-70
2021/07/29 10:37:05;;;;;;;10.13;2.03;;;;;;;;;;5015304;28;20144;-69
2021/07/29 10:39:32;;;;;;;6.60;2.03;;;;;;;;;;5017482;28;20041;-70
2021/07/29 10:41:59;;;;;;;10.13;2.05;;;;;;;;;;5020560;28;20209;-70
2021/07/29 10:44:32;;;;;;;6.30;1.90;;;;;;;;;;5017706;28;20406;-69
2021/07/29 10:46:58;;;;;;;8.23;2.10;;;;;;;;;;5016152;28;20458;-70
2021/07/29 10:49:43;;;;;;;8.98;2.17;;;;;;;;;;5014979;28;20042;-69
2021/07/29 10:52:10;;;;;;;7.80;2.50;;;;;;;;;;5020467;28;20102;-69
2021/07/29 10:54:37;;;;;;;16.00;2.42;;;;;;;;;;5021700;28;20132;-69
2021/07/29 10:57:04;;;;;;;7.90;1.77;;;;;;;;;;5026181;28;20037;-70
2021/07/29 10:59:32;;;;;;;14.45;2.67;;;;;;;;;;5021443;28;20136;-70
2021/07/29 11:02:01;;;;;;;7.68;1.90;;;;;;;;;;5029615;28;20077;-70
2021/07/29 11:04:29;;;;;;;8.57;2.25;;;;;;;;;;5024616;28;20175;-70
2021/07/29 11:06:59;;;;;;;5.80;1.77;;;;;;;;;;5025744;28;20124;-70
2021/07/29 11:09:30;;;;;;;8.57;2.30;;;;;;;;;;5025664;28;20056;-70
2021/07/29 11:11:57;;;;;;;6.30;1.75;;;;;;;;;;5022201;28;20509;-70
2021/07/29 11:14:25;;;;;;;6.68;1.80;;;;;;;;;;5025190;28;20056;-69
2021/07/29 11:16:52;;;;;;;6.47;2.03;;;;;;;;;;5025022;28;20195;-69
2021/07/29 11:19:18;;;;;;;5.45;1.75;;;;;;;;;;5021816;28;20128;-70
2021/07/29 11:21:45;;;;;;;6.15;1.58;;;;;;;;;;5026711;28;20042;-70
2021/07/29 11:24:26;;;;;;;9.48;2.38;;;;;;;;;;5024836;28;20141;-70
2021/07/29 11:26:52;;;;;;;5.13;1.63;;;;;;;;;;5024370;28;20105;-69
2021/07/29 11:29:18;;;;;;;6.05;1.42;;;;;;;;;;5025269;28;20553;-70
2021/07/29 11:31:45;;;;;;;5.18;1.35;;;;;;;;;;5025339;28;20092;-70
2021/07/29 11:34:11;;;;;;;8.13;1.75;;;;;;;;;;5022587;28;20099;-70
2021/07/29 11:36:37;;;;;;;7.15;2.22;;;;;;;;;;5026637;28;20076;-70
2021/07/29 11:39:06;;;;;;;5.60;1.60;;;;;;;;;;5027548;28;20037;-70
2021/07/29 11:41:50;;;;;;;10.07;1.75;;;;;;;;;;5024651;28;20046;-70
2021/07/29 11:44:16;;;;;;;8.32;1.80;;;;;;;;;;5025637;28;20041;-70
2021/07/29 11:47:03;;;;;;;5.60;1.60;;;;;;;;;;5028512;28;20041;-70
2021/07/29 11:49:29;;;;;;;7.63;2.10;;;;;;;;;;5027746;28;20091;-70
2021/07/29 11:52:03;;;;;;;25.23;4.57;;;;;;;;;;5019243;28;20452;-70
2021/07/29 11:54:31;;;;;;;7.32;2.25;;;;;;;;;;5024797;28;20516;-70
2021/07/29 11:56:58;;;;;;;4.38;1.60;;;;;;;;;;5024261;28;20482;-70
2021/07/29 11:59:24;;;;;;;6.65;1.92;;;;;;;;;;5025086;28;20045;-70
2021/07/29 12:01:50;;;;;;;6.88;1.35;;;;;;;;;;5025820;28;20122;-70
2021/07/29 12:04:17;;;;;;;8.20;1.80;;;;;;;;;;5015897;28;20049;-70
2021/07/29 12:06:44;;;;;;;10.23;1.90;;;;;;;;;;5025403;28;20504;-70
2021/07/29 12:09:11;;;;;;;5.75;1.58;;;;;;;;;;5021249;28;20041;-70
2021/07/29 12:11:37;;;;;;;6.72;1.52;;;;;;;;;;5017117;28;20089;-70
2021/07/29 12:14:03;;;;;;;5.03;1.38;;;;;;;;;;5021391;28;20132;-70
2021/07/29 12:16:46;;;;;;;6.82;2.00;;;;;;;;;;5015051;28;20054;-70
2021/07/29 12:19:12;;;;;;;6.57;1.70;;;;;;;;;;5019533;28;20426;-70
2021/07/29 12:21:38;;;;;;;7.90;1.65;;;;;;;;;;5022758;28;20417;-70
2021/07/29 12:24:05;;;;;;;5.32;1.52;;;;;;;;;;5027863;28;20124;-70
2021/07/29 12:26:31;;;;;;;5.72;1.65;;;;;;;;;;5020647;28;20132;-71
2021/07/29 12:28:57;;;;;;;8.30;1.98;;;;;;;;;;5027468;28;20485;-71
2021/07/29 12:31:25;;;;;;;8.88;1.80;;;;;;;;;;5024482;28;20037;-71
2021/07/29 12:33:59;;;;;;;6.80;1.67;;;;;;;;;;5024759;28;20056;-71
2021/07/29 12:36:25;;;;;;;9.25;2.20;;;;;;;;;;5022249;28;21519;-71
2021/07/29 12:38:59;;;;;;;7.90;2.22;;;;;;;;;;5017576;28;20092;-71
2021/07/29 12:41:30;;;;;;;6.60;2.13;;;;;;;;;;5028451;28;20179;-70
2021/07/29 12:44:16;;;;;;;5.53;1.70;;;;;;;;;;5023475;28;20087;-70
2021/07/29 12:46:43;;;;;;;5.88;1.50;;;;;;;;;;5024056;28;20049;-70
2021/07/29 12:49:09;;;;;;;5.20;1.45;;;;;;;;;;5018399;28;20077;-70
2021/07/29 12:51:42;;;;;;;6.50;1.67;;;;;;;;;;5024319;28;20116;-70
2021/07/29 12:54:08;;;;;;;;;;;;;;;;;;5025585;28;20041;-70
2021/07/29 12:56:36;;;;;;;5.95;1.35;;;;;;;;;;5020802;28;19955;-70
2021/07/29 12:59:02;;;;;;;6.40;1.58;;;;;;;;;;5022873;28;20042;-70
2021/07/29 13:01:28;;;;;;;5.82;1.45;;;;;;;;;;5027637;28;20052;-70
2021/07/29 13:03:55;;;;;;;5.05;0.93;;;;;;;;;;5023515;28;20080;-70
2021/07/29 13:06:22;;;;;;;9.70;1.83;;;;;;;;;;5020969;28;20046;-70
2021/07/29 13:08:48;;;;;;;5.40;1.23;;;;;;;;;;5026569;28;20095;-70
2021/07/29 13:11:15;;;;;;;6.80;1.38;;;;;;;;;;5018478;28;20056;-70
2021/07/29 13:13:43;;;;;;;6.55;1.38;;;;;;;;;;5025898;28;20485;-70
2021/07/29 13:16:10;;;;;;;6.15;1.58;;;;;;;;;;5020748;28;20045;-70
2021/07/29 13:18:36;;;;;;;5.95;1.35;;;;;;;;;;5018726;28;20042;-70
2021/07/29 13:21:04;;;;;;;5.82;1.30;;;;;;;;;;5018510;28;20053;-70
2021/07/29 13:23:30;;;;;;;5.47;1.45;;;;;;;;;;5019214;28;20045;-70
2021/07/29 13:25:56;;;;;;;4.80;1.30;;;;;;;;;;5026360;28;20503;-70
2021/07/29 13:28:24;;;;;;;4.53;1.38;;;;;;;;;;5012776;28;20068;-70
2021/07/29 13:30:50;;;;;;;4.65;1.20;;;;;;;;;;5019913;28;20403;-70
2021/07/29 13:33:16;;;;;;;8.57;1.77;;;;;;;;;;5017207;28;20069;-71
2021/07/29 13:35:43;;;;;;;6.68;1.52;;;;;;;;;;5023456;28;20101;-70
2021/07/29 13:38:09;;;;;;;4.68;1.35;;;;;;;;;;5023683;28;20058;-70
2021/07/29 13:40:36;;;;;;;7.25;1.63;;;;;;;;;;5023383;28;20478;-70
2021/07/29 13:43:02;;;;;;;5.80;1.60;;;;;;;;;;5023011;28;20049;-70
2021/07/29 13:45:29;;;;;;;4.68;1.45;;;;;;;;;;5020560;28;20120;-70
2021/07/29 13:47:56;;;;;;;6.43;1.60;;;;;;;;;;5018639;28;20057;-70
2021/07/29 13:50:24;;;;;;;7.20;1.80;;;;;;;;;;5021527;28;20038;-70
2021/07/29 13:52:53;;;;;;;4.82;1.30;;;;;;;;;;5018461;28;20077;-70
2021/07/29 13:55:19;;;;;;;7.40;1.35;;;;;;;;;;5018160;28;20101;-70
2021/07/29 13:57:47;;;;;;;7.70;1.60;;;;;;;;;;5017485;28;20049;-70
2021/07/29 14:00:14;;;;;;;5.97;1.50;;;;;;;;;;5016408;28;20876;-71
2021/07/29 14:02:40;;;;;;;8.18;1.70;;;;;;;;;;5017850;28;20104;-70
2021/07/29 14:05:08;;;;;;;7.03;1.70;;;;;;;;;;5022980;28;20041;-70
2021/07/29 14:07:34;;;;;;;9.27;1.70;;;;;;;;;;5014445;28;20060;-70
2021/07/29 14:10:01;;;;;;;5.78;1.80;;;;;;;;;;5021269;28;20145;-70
2021/07/29 14:12:27;;;;;;;7.93;1.85;;;;;;;;;;5021485;28;20128;-70
2021/07/29 14:14:54;;;;;;;10.75;1.92;;;;;;;;;;5017346;28;20108;-70
2021/07/29 14:17:24;;;;;;;10.75;1.80;;;;;;;;;;5017542;28;20046;-70
2021/07/29 14:20:04;;;;;;;9.25;2.17;;;;;;;;;;5022865;28;20332;-70
2021/07/29 14:25:16;;;;;;;6.28;1.60;;;;;;;;;;5018013;28;20080;-70
2021/07/29 14:27:42;;;;;;;7.05;1.45;;;;;;;;;;5026926;28;20132;-70
2021/07/29 14:30:08;;;;;;;5.80;1.67;;;;;;;;;;5032356;28;20037;-70
2021/07/29 14:32:35;;;;;;;12.43;2.40;;;;;;;;;;5030776;28;20115;-70
2021/07/29 14:35:01;;;;;;;9.30;2.30;;;;;;;;;;5026257;28;20073;-70
2021/07/29 14:37:27;;;;;;;9.77;1.75;;;;;;;;;;5022516;28;20069;-70
2021/07/29 14:39:55;;;;;;;7.68;1.65;;;;;;;;;;5022703;28;20123;-70
2021/07/29 14:42:22;;;;;;;8.00;2.30;;;;;;;;;;5025803;28;20092;-70
2021/07/29 14:44:52;;;;;;;10.30;2.38;;;;;;;;;;5023747;28;20053;-70